Aérodrome :
LOGIN :

S'inscrire | Disclaimer

   EN    FR    IT 

 










Légende :    VFR   VFR Marginal   IFR   IFR Intensif   IFR Très Intensif
Visi : 
Plafond : 
>= 8 km
>= 3000ft
5 à 8 km
1000 à 3000 ft
1500m à 5 km
500 à 1000 ft
800 à 1500m
200 à 500 ft
< 800m
< 200 ft
Symboles :   Orages  Brouillard  Fortes neiges  Fortes précipitations  Vent > 20 kt
SIGMETs :   Divers  Orages  Givrage  Turbulence  Onde Orograph.  Cendres Volcan.







- Altitude de l'aérodrome : 0 ft


ENOA - Oseberg A Platform

DERNIER METAR :
  • 170320Z 16021KT 6000 BKN005 07/07 Q1010 W///S4

METARs EXPIRÉS :
  • 170250Z 15020KT 4000 BR OVC005 07/07 Q1010 W///S4
  • 170220Z 14014KT 2000 -RA BR BKN005 07/06 Q1011 W///S4
  • 170150Z 14013KT 090V170 9999 OVC006 07/06 Q1011 W///S4
  • 170050Z 14012KT 100V160 9999 BKN010 06/05 Q1012 W///S4

TAF ENOA
Valide du 17 à 03h jusqu'au 18 à 03h UTC


1703/1803 15025KT 9999 SCT008 BKN020
TEMPO 1703/1707 BKN008
BECMG 1707/1709 17038KT BKN008
TEMPO 1709/1719 2500 -RADZ BR BKN004
BECMG 1719/1721 SCT020
Pas de NOTAMs connus pour ce terrain.



MET'MAP, la Météo Aéronautique d'un coup d'oeil ! - Copyright ORBIFLY Décembre 2007 - Disclaimer

ORBIFLY MET'MAP TEAM :

Programmation & Développement : Alexandra Zaïnal
Conception & Développement : Baudouin d'Aumeries
Co-Programmation & Développement : Marc-Olivier Méhu
Soutien technique & logistique : Manuel Goepfert

Contact : metmap@orbifly.com




SOURCES & CREDITS :

   NOAA